sensor_id;sensor_type;location;lat;lon;timestamp;pressure;altitude;pressure_sealevel;temperature;humidity
69027;BME280;56080;47.594;19.116;2023-06-04T00:06:54;100514;;;14.01;65.17
69027;BME280;56080;47.594;19.116;2023-06-04T00:16:55;100514;;;13.91;66.38
69027;BME280;56080;47.594;19.116;2023-06-04T00:26:57;100515;;;13.87;66.63
69027;BME280;56080;47.594;19.116;2023-06-04T00:37:01;100506;;;13.82;65.57
69027;BME280;56080;47.594;19.116;2023-06-04T00:46:59;100504;;;13.99;64.21
69027;BME280;56080;47.594;19.116;2023-06-04T00:57:00;100504;;;13.76;65.14
69027;BME280;56080;47.594;19.116;2023-06-04T01:07:02;100492;;;13.62;65.95
69027;BME280;56080;47.594;19.116;2023-06-04T01:27:04;100496;;;13.64;66.53
69027;BME280;56080;47.594;19.116;2023-06-04T01:37:05;100498;;;13.34;68.32
69027;BME280;56080;47.594;19.116;2023-06-04T01:47:06;100499;;;13.18;69.08
69027;BME280;56080;47.594;19.116;2023-06-04T01:57:09;100497;;;13.18;69.27
69027;BME280;56080;47.594;19.116;2023-06-04T02:07:10;100491;;;12.58;72.26
69027;BME280;56080;47.594;19.116;2023-06-04T02:17:12;100491;;;12.62;77.47
69027;BME280;56080;47.594;19.116;2023-06-04T02:27:11;100507;;;12.15;81.15
69027;BME280;56080;47.594;19.116;2023-06-04T02:37:12;100514;;;12.31;79.04
69027;BME280;56080;47.594;19.116;2023-06-04T02:47:13;100522;;;12.36;78.99
69027;BME280;56080;47.594;19.116;2023-06-04T02:57:14;100520;;;12.47;78.41
69027;BME280;56080;47.594;19.116;2023-06-04T03:07:19;100515;;;12.62;77.89
69027;BME280;56080;47.594;19.116;2023-06-04T03:17:16;100518;;;12.39;77.35
69027;BME280;56080;47.594;19.116;2023-06-04T03:27:17;100516;;;12.26;80.31
69027;BME280;56080;47.594;19.116;2023-06-04T03:37:18;100520;;;12.76;78.48
69027;BME280;56080;47.594;19.116;2023-06-04T03:47:19;100520;;;12.42;77.67
69027;BME280;56080;47.594;19.116;2023-06-04T03:57:21;100522;;;12.36;76.99
69027;BME280;56080;47.594;19.116;2023-06-04T04:07:23;100547;;;12.77;76.06
69027;BME280;56080;47.594;19.116;2023-06-04T04:17:23;100552;;;13.05;76.84
69027;BME280;56080;47.594;19.116;2023-06-04T04:27:25;100559;;;13.25;76.55
69027;BME280;56080;47.594;19.116;2023-06-04T04:37:26;100569;;;13.38;76.05
69027;BME280;56080;47.594;19.116;2023-06-04T04:47:27;100571;;;13.61;76.35
69027;BME280;56080;47.594;19.116;2023-06-04T04:57:28;100570;;;14.69;71.33
69027;BME280;56080;47.594;19.116;2023-06-04T05:07:29;100575;;;16.31;63.82
69027;BME280;56080;47.594;19.116;2023-06-04T05:17:31;100586;;;15.83;62.53
69027;BME280;56080;47.594;19.116;2023-06-04T05:27:32;100582;;;15.73;62.55
69027;BME280;56080;47.594;19.116;2023-06-04T05:37:34;100582;;;15.64;60.48
69027;BME280;56080;47.594;19.116;2023-06-04T05:47:35;100595;;;15.81;59.37
69027;BME280;56080;47.594;19.116;2023-06-04T05:57:36;100594;;;15.59;59.80
69027;BME280;56080;47.594;19.116;2023-06-04T06:07:39;100587;;;15.99;58.80
69027;BME280;56080;47.594;19.116;2023-06-04T06:17:40;100607;;;17.35;53.70
69027;BME280;56080;47.594;19.116;2023-06-04T06:27:41;100598;;;20.89;44.83
69027;BME280;56080;47.594;19.116;2023-06-04T06:37:43;100593;;;20.64;42.61
69027;BME280;56080;47.594;19.116;2023-06-04T06:47:44;100598;;;19.81;45.02
69027;BME280;56080;47.594;19.116;2023-06-04T06:57:46;100603;;;21.11;43.96
69027;BME280;56080;47.594;19.116;2023-06-04T07:07:48;100616;;;19.85;44.20
69027;BME280;56080;47.594;19.116;2023-06-04T07:17:50;100629;;;18.81;47.44
69027;BME280;56080;47.594;19.116;2023-06-04T07:27:52;100633;;;18.70;48.98
69027;BME280;56080;47.594;19.116;2023-06-04T07:37:53;100633;;;18.38;49.53
69027;BME280;56080;47.594;19.116;2023-06-04T07:47:56;100631;;;20.57;44.65
69027;BME280;56080;47.594;19.116;2023-06-04T07:57:56;100624;;;22.13;38.12
69027;BME280;56080;47.594;19.116;2023-06-04T08:07:58;100636;;;23.27;36.46
69027;BME280;56080;47.594;19.116;2023-06-04T08:18:01;100627;;;21.77;36.11
69027;BME280;56080;47.594;19.116;2023-06-04T08:28:03;100632;;;21.24;36.06
69027;BME280;56080;47.594;19.116;2023-06-04T08:38:04;100631;;;21.43;36.53
69027;BME280;56080;47.594;19.116;2023-06-04T08:48:08;100642;;;20.87;38.30
69027;BME280;56080;47.594;19.116;2023-06-04T08:58:10;100622;;;20.95;36.98
69027;BME280;56080;47.594;19.116;2023-06-04T09:08:10;100625;;;21.09;37.67
69027;BME280;56080;47.594;19.116;2023-06-04T09:18:13;100625;;;21.06;39.07
69027;BME280;56080;47.594;19.116;2023-06-04T09:28:13;100635;;;20.94;39.15
69027;BME280;56080;47.594;19.116;2023-06-04T09:38:15;100633;;;21.20;39.07
69027;BME280;56080;47.594;19.116;2023-06-04T09:48:19;100620;;;21.14;37.53
69027;BME280;56080;47.594;19.116;2023-06-04T09:58:18;100623;;;21.03;37.21
69027;BME280;56080;47.594;19.116;2023-06-04T10:08:21;100616;;;21.06;36.77
69027;BME280;56080;47.594;19.116;2023-06-04T10:18:22;100623;;;21.41;36.83
69027;BME280;56080;47.594;19.116;2023-06-04T10:28:24;100627;;;21.47;36.72
69027;BME280;56080;47.594;19.116;2023-06-04T10:38:26;100624;;;21.48;36.85
69027;BME280;56080;47.594;19.116;2023-06-04T10:48:27;100623;;;21.94;34.82
69027;BME280;56080;47.594;19.116;2023-06-04T10:58:33;100618;;;22.09;34.37
69027;BME280;56080;47.594;19.116;2023-06-04T11:08:31;100614;;;22.24;34.02
69027;BME280;56080;47.594;19.116;2023-06-04T11:18:33;100612;;;22.23;33.49
69027;BME280;56080;47.594;19.116;2023-06-04T11:28:35;100601;;;22.47;33.69
69027;BME280;56080;47.594;19.116;2023-06-04T11:38:37;100606;;;22.38;35.51
69027;BME280;56080;47.594;19.116;2023-06-04T11:48:39;100606;;;22.55;35.82
69027;BME280;56080;47.594;19.116;2023-06-04T11:58:41;100611;;;22.59;35.34
69027;BME280;56080;47.594;19.116;2023-06-04T12:18:44;100612;;;22.45;35.53
69027;BME280;56080;47.594;19.116;2023-06-04T12:28:46;100611;;;22.35;35.60
69027;BME280;56080;47.594;19.116;2023-06-04T12:38:48;100611;;;22.29;35.92
69027;BME280;56080;47.594;19.116;2023-06-04T12:48:50;100615;;;22.72;35.56
69027;BME280;56080;47.594;19.116;2023-06-04T12:58:52;100611;;;22.45;36.20
69027;BME280;56080;47.594;19.116;2023-06-04T13:08:54;100596;;;22.44;36.33
69027;BME280;56080;47.594;19.116;2023-06-04T13:18:56;100606;;;22.65;37.61
69027;BME280;56080;47.594;19.116;2023-06-04T13:28:57;100589;;;22.81;36.28
69027;BME280;56080;47.594;19.116;2023-06-04T13:38:59;100585;;;23.12;36.26
69027;BME280;56080;47.594;19.116;2023-06-04T13:49:02;100581;;;22.76;35.94
69027;BME280;56080;47.594;19.116;2023-06-04T13:59:03;100582;;;22.84;36.75
69027;BME280;56080;47.594;19.116;2023-06-04T14:09:09;100576;;;22.69;37.44
69027;BME280;56080;47.594;19.116;2023-06-04T14:19:07;100567;;;22.67;37.66
69027;BME280;56080;47.594;19.116;2023-06-04T14:29:09;100570;;;22.90;37.13
69027;BME280;56080;47.594;19.116;2023-06-04T14:39:12;100571;;;22.65;37.82
69027;BME280;56080;47.594;19.116;2023-06-04T14:49:13;100563;;;22.32;38.39
69027;BME280;56080;47.594;19.116;2023-06-04T14:59:14;100575;;;22.03;43.77
69027;BME280;56080;47.594;19.116;2023-06-04T15:09:16;100572;;;21.69;46.53
69027;BME280;56080;47.594;19.116;2023-06-04T15:19:18;100556;;;21.55;48.64
69027;BME280;56080;47.594;19.116;2023-06-04T15:29:20;100545;;;20.72;54.75
69027;BME280;56080;47.594;19.116;2023-06-04T15:39:23;100542;;;20.34;59.61
69027;BME280;56080;47.594;19.116;2023-06-04T15:49:23;100538;;;20.45;58.62
69027;BME280;56080;47.594;19.116;2023-06-04T15:59:25;100539;;;20.68;58.27
69027;BME280;56080;47.594;19.116;2023-06-04T16:09:28;100545;;;20.61;57.79
69027;BME280;56080;47.594;19.116;2023-06-04T16:19:29;100530;;;20.63;59.25
69027;BME280;56080;47.594;19.116;2023-06-04T16:29:30;100528;;;20.41;53.56
69027;BME280;56080;47.594;19.116;2023-06-04T16:49:33;100534;;;20.25;53.42
69027;BME280;56080;47.594;19.116;2023-06-04T16:59:35;100524;;;20.19;53.88
69027;BME280;56080;47.594;19.116;2023-06-04T17:09:37;100526;;;20.47;54.33
69027;BME280;56080;47.594;19.116;2023-06-04T17:19:40;100524;;;20.36;54.41
69027;BME280;56080;47.594;19.116;2023-06-04T17:29:40;100527;;;20.33;55.30
69027;BME280;56080;47.594;19.116;2023-06-04T17:39:42;100525;;;20.33;55.55
69027;BME280;56080;47.594;19.116;2023-06-04T17:49:44;100525;;;20.05;57.74
69027;BME280;56080;47.594;19.116;2023-06-04T17:59:44;100532;;;20.14;58.20
69027;BME280;56080;47.594;19.116;2023-06-04T18:19:51;100539;;;19.92;61.38
69027;BME280;56080;47.594;19.116;2023-06-04T18:29:49;100537;;;19.79;62.93
69027;BME280;56080;47.594;19.116;2023-06-04T18:39:51;100548;;;19.83;62.49
69027;BME280;56080;47.594;19.116;2023-06-04T18:49:53;100553;;;19.58;63.04
69027;BME280;56080;47.594;19.116;2023-06-04T18:59:56;100569;;;19.47;63.60
69027;BME280;56080;47.594;19.116;2023-06-04T19:09:57;100576;;;19.40;63.44
69027;BME280;56080;47.594;19.116;2023-06-04T19:19:57;100583;;;19.37;62.33
69027;BME280;56080;47.594;19.116;2023-06-04T19:29:59;100585;;;19.21;62.39
69027;BME280;56080;47.594;19.116;2023-06-04T19:40:01;100584;;;19.20;62.33
69027;BME280;56080;47.594;19.116;2023-06-04T19:50:04;100578;;;19.10;62.29
69027;BME280;56080;47.594;19.116;2023-06-04T20:00:05;100581;;;19.02;62.49
69027;BME280;56080;47.594;19.116;2023-06-04T20:10:05;100581;;;19.08;62.45
69027;BME280;56080;47.594;19.116;2023-06-04T20:20:07;100577;;;18.99;62.79
69027;BME280;56080;47.594;19.116;2023-06-04T20:30:09;100574;;;19.07;62.13
69027;BME280;56080;47.594;19.116;2023-06-04T20:50:11;100566;;;18.83;60.86
69027;BME280;56080;47.594;19.116;2023-06-04T21:00:14;100571;;;18.75;60.56
69027;BME280;56080;47.594;19.116;2023-06-04T21:10:15;100569;;;18.66;60.80
69027;BME280;56080;47.594;19.116;2023-06-04T21:20:16;100570;;;18.52;61.47
69027;BME280;56080;47.594;19.116;2023-06-04T21:30:18;100573;;;18.40;62.46
69027;BME280;56080;47.594;19.116;2023-06-04T21:40:19;100579;;;18.40;63.10
69027;BME280;56080;47.594;19.116;2023-06-04T21:50:21;100577;;;18.58;62.52
69027;BME280;56080;47.594;19.116;2023-06-04T22:00:24;100580;;;18.48;62.64
69027;BME280;56080;47.594;19.116;2023-06-04T22:10:23;100582;;;18.45;62.77
69027;BME280;56080;47.594;19.116;2023-06-04T22:20:25;100585;;;18.42;62.90
69027;BME280;56080;47.594;19.116;2023-06-04T22:40:28;100587;;;18.21;63.26
69027;BME280;56080;47.594;19.116;2023-06-04T22:50:29;100591;;;18.09;63.29
69027;BME280;56080;47.594;19.116;2023-06-04T23:00:32;100586;;;17.87;64.18
69027;BME280;56080;47.594;19.116;2023-06-04T23:10:33;100587;;;18.02;64.76
69027;BME280;56080;47.594;19.116;2023-06-04T23:20:34;100582;;;17.93;66.47
69027;BME280;56080;47.594;19.116;2023-06-04T23:30:36;100581;;;17.91;66.05
69027;BME280;56080;47.594;19.116;2023-06-04T23:40:37;100575;;;17.91;66.41
69027;BME280;56080;47.594;19.116;2023-06-04T23:50:39;100577;;;17.78;67.17
